Time;durP1;ratioP1;P1;durP2;ratioP2;P2;SDS_P1;SDS_P2;PMS_P1;PMS_P2;Temp;Humidity;BMP_temperature;BMP_pressure;BME280_temperature;BME280_humidity;BME280_pressure;Samples;Min_cycle;Max_cycle;Signal;HPM_P1;HPM_P2
2022/09/19 00:01:46;;;;;;;3.13;0.60;;;;;11.90;98922.00;;;;16590823;28;20699;-47
2022/09/19 00:09:48;;;;;;;1.27;0.60;;;;;11.80;98934.00;;;;16588793;28;20238;-48
2022/09/19 00:17:52;;;;;;;1.50;0.70;;;;;11.90;98934.00;;;;16594114;28;20230;-48
2022/09/19 00:25:59;;;;;;;0.90;0.60;;;;;11.90;98953.00;;;;16588183;28;20253;-47
2022/09/19 00:34:06;;;;;;;0.50;0.50;;;;;11.70;98938.00;;;;16577039;28;20231;-48
2022/09/19 00:42:16;;;;;;;0.30;0.30;;;;;11.60;98953.00;;;;16594532;28;20219;-48
2022/09/19 00:50:22;;;;;;;0.60;0.60;;;;;11.30;98948.00;;;;16584651;28;20249;-47
2022/09/19 00:58:28;;;;;;;0.37;0.37;;;;;11.20;98968.00;;;;16583018;28;20239;-47
2022/09/19 01:06:42;;;;;;;0.40;0.40;;;;;11.10;98979.00;;;;16588092;28;20328;-47
2022/09/19 01:15:03;;;;;;;0.50;0.40;;;;;10.90;98983.00;;;;16579789;28;20229;-47
2022/09/19 01:23:28;;;;;;;0.70;0.60;;;;;10.60;98993.00;;;;16583077;28;20223;-47
2022/09/19 01:31:34;;;;;;;0.57;0.57;;;;;10.60;98993.00;;;;16588798;28;20219;-48
2022/09/19 01:39:39;;;;;;;0.73;0.30;;;;;10.50;98988.00;;;;16592512;28;20223;-48
2022/09/19 01:47:52;;;;;;;0.57;0.57;;;;;10.40;98996.00;;;;16584768;28;20215;-47
2022/09/19 01:56:00;;;;;;;0.53;0.53;;;;;10.40;99016.00;;;;16576625;28;20203;-48
2022/09/19 02:04:10;;;;;;;2.30;1.00;;;;;10.70;99014.00;;;;16584619;28;20676;-47
2022/09/19 02:12:16;;;;;;;0.50;0.50;;;;;10.80;99013.00;;;;16585128;28;20230;-47
2022/09/19 02:20:25;;;;;;;1.07;1.07;;;;;10.60;99021.00;;;;16584722;28;20237;-47
2022/09/19 02:28:32;;;;;;;0.70;0.70;;;;;10.80;99003.00;;;;16589787;28;20230;-48
2022/09/19 02:36:44;;;;;;;1.70;0.97;;;;;10.40;99017.00;;;;16593940;28;20207;-47
2022/09/19 02:45:00;;;;;;;0.70;0.70;;;;;10.40;99021.00;;;;16607848;28;20572;-48
2022/09/19 02:53:09;;;;;;;1.10;1.00;;;;;10.30;99018.00;;;;16596563;28;20227;-47
2022/09/19 03:01:18;;;;;;;0.70;0.70;;;;;10.40;99007.00;;;;16596026;28;20281;-48
2022/09/19 03:09:24;;;;;;;1.90;1.13;;;;;10.40;99020.00;;;;16608340;28;20230;-47
2022/09/19 03:17:30;;;;;;;4.40;1.10;;;;;10.40;99018.00;;;;16602081;28;20233;-47
2022/09/19 03:25:35;;;;;;;2.10;0.80;;;;;10.50;99021.00;;;;16590836;28;20717;-47
2022/09/19 03:33:39;;;;;;;2.97;1.03;;;;;10.50;99027.00;;;;16595569;28;20618;-47
2022/09/19 03:41:46;;;;;;;1.60;1.33;;;;;10.60;99032.00;;;;16597048;28;20211;-48
2022/09/19 03:49:50;;;;;;;3.77;1.13;;;;;10.70;99029.00;;;;16588868;28;20266;-47
2022/09/19 03:57:54;;;;;;;2.43;1.37;;;;;10.70;99024.00;;;;16589885;28;20235;-47
2022/09/19 04:05:57;;;;;;;3.90;1.57;;;;;10.90;99023.00;;;;16594916;28;20703;-47
2022/09/19 04:14:02;;;;;;;3.90;1.33;;;;;11.10;99040.00;;;;16604374;28;20358;-48
2022/09/19 04:22:04;;;;;;;1.87;1.30;;;;;11.10;99041.00;;;;16589989;28;20230;-48
2022/09/19 04:30:15;;;;;;;2.87;1.13;;;;;11.30;99056.00;;;;16592939;28;20266;-48
2022/09/19 04:38:20;;;;;;;2.43;1.00;;;;;11.30;99060.00;;;;16594603;28;20239;-47
2022/09/19 04:46:31;;;;;;;3.47;1.13;;;;;11.50;99052.00;;;;16590126;28;20550;-48
2022/09/19 04:54:41;;;;;;;8.90;1.53;;;;;11.90;99044.00;;;;16571228;28;20232;-48
2022/09/19 05:02:47;;;;;;;2.70;1.43;;;;;11.80;99058.00;;;;16591210;28;20220;-47
2022/09/19 05:10:51;;;;;;;3.00;1.50;;;;;12.70;99083.00;;;;16584353;28;20219;-47
2022/09/19 05:18:55;;;;;;;3.93;1.83;;;;;12.30;99099.00;;;;16566853;28;20228;-48
2022/09/19 05:26:59;;;;;;;4.13;1.20;;;;;13.10;99084.00;;;;16573019;28;20212;-48
2022/09/19 05:35:05;;;;;;;5.90;2.03;;;;;14.00;99105.00;;;;16570401;28;20226;-47
2022/09/19 05:43:19;;;;;;;2.13;1.23;;;;;12.20;99122.00;;;;16584112;28;20248;-47
2022/09/19 05:51:25;;;;;;;4.30;1.50;;;;;12.40;99128.00;;;;16574212;28;20224;-47
2022/09/19 05:59:27;;;;;;;6.33;1.93;;;;;12.20;99134.00;;;;16557932;28;20365;-48
2022/09/19 06:07:32;;;;;;;7.33;1.97;;;;;12.20;99136.00;;;;16577632;28;20226;-47
2022/09/19 06:15:35;;;;;;;8.00;2.20;;;;;12.30;99153.00;;;;16588834;28;20232;-47
2022/09/19 06:23:40;;;;;;;3.53;1.70;;;;;12.50;99155.00;;;;16587234;28;20259;-48
2022/09/19 06:31:45;;;;;;;3.63;1.80;;;;;12.60;99166.00;;;;16585218;28;20221;-48
2022/09/19 06:39:56;;;;;;;8.73;2.20;;;;;12.50;99167.00;;;;16589056;28;20254;-47
2022/09/19 06:48:17;;;;;;;12.00;2.30;;;;;12.70;99166.00;;;;16600158;28;20225;-47
2022/09/19 06:56:40;;;;;;;6.73;2.83;;;;;12.90;99174.00;;;;16570500;28;20207;-47
2022/09/19 07:04:45;;;;;;;5.00;1.90;;;;;12.90;99180.00;;;;16569577;28;20766;-47
2022/09/19 07:13:01;;;;;;;6.70;1.90;;;;;12.90;99188.00;;;;16565777;28;20250;-48
2022/09/19 07:21:05;;;;;;;5.40;1.70;;;;;12.90;99197.00;;;;16599731;28;20252;-47
2022/09/19 07:29:14;;;;;;;4.20;1.83;;;;;13.00;99196.00;;;;16590532;28;20685;-48
2022/09/19 07:37:17;;;;;;;6.43;2.33;;;;;13.00;99211.00;;;;16568428;28;20203;-47
2022/09/19 07:45:27;;;;;;;5.80;2.00;;;;;13.50;99216.00;;;;16580342;28;20230;-47
2022/09/19 07:53:46;;;;;;;6.33;2.07;;;;;13.30;99224.00;;;;16586249;28;20239;-47
2022/09/19 08:01:50;;;;;;;4.77;1.97;;;;;13.40;99240.00;;;;16591707;28;20236;-47
2022/09/19 08:10:07;;;;;;;10.33;2.50;;;;;13.50;99252.00;;;;16585131;28;20237;-47
2022/09/19 08:18:14;;;;;;;4.80;1.67;;;;;14.10;99255.00;;;;16583255;28;20233;-47
2022/09/19 08:26:17;;;;;;;6.70;2.43;;;;;14.00;99262.00;;;;16573070;28;20195;-47
2022/09/19 08:34:21;;;;;;;5.20;1.40;;;;;13.60;99261.00;;;;16577383;28;20233;-46
2022/09/19 08:42:31;;;;;;;8.50;3.00;;;;;13.80;99267.00;;;;16579820;28;20596;-47
2022/09/19 08:50:39;;;;;;;13.43;2.37;;;;;14.00;99280.00;;;;16587646;28;20225;-47
2022/09/19 08:58:52;;;;;;;6.10;2.47;;;;;14.80;99290.00;;;;16583254;28;20224;-48
2022/09/19 09:07:19;;;;;;;8.40;2.60;;;;;14.60;99286.00;;;;16584870;28;20301;-47
2022/09/19 09:15:44;;;;;;;7.00;2.13;;;;;14.70;99291.00;;;;16593330;28;20234;-48
2022/09/19 09:23:51;;;;;;;6.70;3.20;;;;;14.20;99299.00;;;;16561868;28;20379;-47
2022/09/19 09:32:19;;;;;;;6.00;2.90;;;;;14.70;99294.00;;;;16559210;28;20599;-48
2022/09/19 09:49:00;;;;;;;5.23;2.53;;;;;14.60;99294.00;;;;16583697;28;20650;-47
2022/09/19 09:57:10;;;;;;;5.33;2.40;;;;;15.00;99296.00;;;;16584814;28;20209;-47
2022/09/19 10:05:20;;;;;;;3.80;2.20;;;;;14.80;99309.00;;;;16589093;28;20851;-48
2022/09/19 10:13:27;;;;;;;6.40;2.43;;;;;14.70;99297.00;;;;16544547;28;20226;-48
2022/09/19 10:21:30;;;;;;;4.80;2.33;;;;;15.00;99289.00;;;;16559633;28;20223;-47
2022/09/19 10:29:35;;;;;;;2.43;1.63;;;;;15.30;99292.00;;;;16544151;28;20236;-47
2022/09/19 10:37:53;;;;;;;8.57;2.50;;;;;15.30;99305.00;;;;16541645;28;20223;-46
2022/09/19 10:45:57;;;;;;;3.27;2.00;;;;;15.50;99290.00;;;;16545946;28;20285;-47
2022/09/19 10:54:01;;;;;;;2.73;1.93;;;;;16.10;99289.00;;;;16565901;28;20324;-47
2022/09/19 11:02:27;;;;;;;7.80;2.10;;;;;16.40;99272.00;;;;16553616;28;20211;-47
2022/09/19 11:10:38;;;;;;;4.37;2.30;;;;;16.30;99282.00;;;;16555371;28;20223;-47
2022/09/19 11:19:11;;;;;;;4.13;1.87;;;;;16.70;99276.00;;;;16566107;28;20227;-47
2022/09/19 11:27:30;;;;;;;3.37;2.03;;;;;16.20;99285.00;;;;16562454;28;20236;-47
2022/09/19 11:35:42;;;;;;;5.57;1.60;;;;;15.70;99293.00;;;;16563921;28;20595;-47
2022/09/19 11:43:59;;;;;;;2.63;2.03;;;;;16.10;99286.00;;;;16567833;28;20222;-47
2022/09/19 11:52:11;;;;;;;3.93;2.00;;;;;16.60;99287.00;;;;16553522;28;20311;-47
2022/09/19 12:00:17;;;;;;;8.53;2.27;;;;;17.00;99278.00;;;;16554639;28;20231;-47
2022/09/19 12:08:39;;;;;;;3.30;1.90;;;;;16.60;99275.00;;;;16552504;28;20648;-47
2022/09/19 12:16:44;;;;;;;3.70;1.30;;;;;15.90;99272.00;;;;16553650;28;20714;-47
2022/09/19 12:24:54;;;;;;;4.63;1.97;;;;;16.00;99255.00;;;;16550253;28;20246;-46
2022/09/19 12:33:04;;;;;;;3.57;1.80;;;;;16.50;99248.00;;;;16566255;28;20750;-47
2022/09/19 12:41:14;;;;;;;4.80;1.30;;;;;16.50;99244.00;;;;16576840;28;20218;-48
2022/09/19 12:49:21;;;;;;;3.63;1.57;;;;;17.60;99238.00;;;;16552651;28;20223;-48
2022/09/19 12:57:38;;;;;;;5.00;1.60;;;;;18.40;99231.00;;;;16559699;28;20223;-47
2022/09/19 13:05:43;;;;;;;4.60;1.90;;;;;17.80;99225.00;;;;16581607;28;20337;-47
2022/09/19 13:13:51;;;;;;;3.27;1.27;;;;;16.90;99222.00;;;;16581980;28;20692;-48
2022/09/19 13:30:49;;;;;;;3.27;1.50;;;;;17.60;99229.00;;;;16583690;28;20227;-47
2022/09/19 13:38:55;;;;;;;2.90;1.50;;;;;17.30;99211.00;;;;16570160;28;20219;-48
2022/09/19 13:47:07;;;;;;;2.00;1.33;;;;;17.40;99212.00;;;;16566044;28;20210;-47
2022/09/19 13:55:31;;;;;;;2.37;1.37;;;;;20.00;99193.00;;;;16572140;28;20261;-48
2022/09/19 14:03:37;;;;;;;1.87;0.80;;;;;19.80;99194.00;;;;16579787;28;20221;-47
2022/09/19 14:11:40;;;;;;;2.90;1.17;;;;;17.80;99200.00;;;;16581775;28;20300;-47
2022/09/19 14:19:48;;;;;;;3.13;1.40;;;;;17.90;99210.00;;;;16583783;28;20223;-48
2022/09/19 14:28:12;;;;;;;3.40;1.10;;;;;18.10;99217.00;;;;16593225;28;20223;-48
2022/09/19 14:36:22;;;;;;;3.07;1.27;;;;;17.50;99247.00;;;;16594027;28;20219;-47
2022/09/19 14:44:54;;;;;;;2.30;1.37;;;;;16.70;99255.00;;;;16596903;28;20238;-47
2022/09/19 14:53:01;;;;;;;3.00;2.23;;;;;17.50;99234.00;;;;16573651;28;20856;-48
2022/09/19 15:01:07;;;;;;;1.63;1.27;;;;;16.40;99242.00;;;;16587940;28;20237;-47
2022/09/19 15:09:20;;;;;;;1.60;1.13;;;;;16.20;99239.00;;;;16586282;28;20333;-48
2022/09/19 15:17:24;;;;;;;1.73;1.30;;;;;17.00;99227.00;;;;16585803;28;20259;-47
2022/09/19 15:25:31;;;;;;;4.20;2.10;;;;;16.60;99231.00;;;;16579362;28;20272;-48
2022/09/19 15:33:33;;;;;;;1.53;1.30;;;;;16.40;99242.00;;;;16579092;28;20231;-47
2022/09/19 15:41:38;;;;;;;1.40;1.30;;;;;16.20;99227.00;;;;16570721;28;20250;-48
2022/09/19 15:49:43;;;;;;;3.10;1.90;;;;;16.10;99242.00;;;;16577806;28;20311;-48
2022/09/19 15:57:51;;;;;;;4.33;2.67;;;;;17.20;99236.00;;;;16592448;28;20226;-48
2022/09/19 16:08:57;;;;;;;3.63;2.00;;;;;17.60;99229.00;;;;16588177;28;20234;-48
2022/09/19 16:14:40;;;;;;;2.50;1.60;;;;;16.40;99234.00;;;;16578279;28;20235;-48
2022/09/19 16:22:42;;;;;;;5.03;3.47;;;;;16.10;99239.00;;;;16585586;28;20242;-47
2022/09/19 16:30:52;;;;;;;2.87;2.60;;;;;16.20;99269.00;;;;16588902;28;20238;-47
2022/09/19 16:39:21;;;;;;;3.63;2.43;;;;;15.20;99276.00;;;;16587476;28;20226;-47
2022/09/19 16:47:25;;;;;;;5.60;3.03;;;;;15.20;99280.00;;;;16581695;28;20261;-47
2022/09/19 16:55:41;;;;;;;6.73;3.00;;;;;15.20;99277.00;;;;16565826;28;20338;-47
2022/09/19 17:03:44;;;;;;;4.77;2.20;;;;;15.70;99281.00;;;;16569111;28;20259;-47
2022/09/19 17:11:47;;;;;;;5.50;2.63;;;;;14.50;99300.00;;;;16576657;28;20281;-47
2022/09/19 17:19:51;;;;;;;7.63;4.20;;;;;15.30;99293.00;;;;16570027;28;20805;-47
2022/09/19 17:27:53;;;;;;;6.00;3.50;;;;;15.00;99304.00;;;;16571055;28;20230;-46
2022/09/19 17:35:59;;;;;;;2.57;2.37;;;;;14.60;99312.00;;;;16571753;28;20247;-47
2022/09/19 17:44:05;;;;;;;2.27;2.00;;;;;14.30;99314.00;;;;16570482;28;20703;-46
2022/09/19 17:52:09;;;;;;;5.47;3.40;;;;;14.40;99311.00;;;;16565903;28;20222;-46
2022/09/19 18:00:12;;;;;;;3.00;2.80;;;;;14.30;99307.00;;;;16554590;28;20254;-47
2022/09/19 18:08:16;;;;;;;5.70;5.10;;;;;15.10;99311.00;;;;16555919;28;20232;-47
2022/09/19 18:16:19;;;;;;;9.00;6.13;;;;;14.90;99322.00;;;;16546284;28;20727;-47
2022/09/19 18:24:23;;;;;;;5.03;4.63;;;;;15.40;99326.00;;;;16532675;28;20245;-47
2022/09/19 18:32:25;;;;;;;3.80;3.20;;;;;14.20;99337.00;;;;16556537;28;20303;-47
2022/09/19 18:40:29;;;;;;;3.30;3.10;;;;;14.30;99346.00;;;;16550029;28;20709;-47
2022/09/19 18:48:32;;;;;;;4.00;2.97;;;;;14.10;99343.00;;;;16554875;28;20823;-47
2022/09/19 18:56:36;;;;;;;3.67;3.37;;;;;15.00;99343.00;;;;16554462;28;20606;-47
2022/09/19 19:04:39;;;;;;;8.17;4.37;;;;;14.90;99341.00;;;;16570235;28;20265;-48
2022/09/19 19:12:43;;;;;;;4.90;4.40;;;;;14.50;99341.00;;;;16585309;28;20226;-47
2022/09/19 19:20:47;;;;;;;5.70;4.20;;;;;14.50;99349.00;;;;16589777;28;20283;-47
2022/09/19 19:28:51;;;;;;;4.50;3.70;;;;;14.60;99350.00;;;;16592591;28;20452;-47
2022/09/19 19:36:53;;;;;;;5.87;4.10;;;;;14.70;99349.00;;;;16561755;28;20707;-47
2022/09/19 19:44:57;;;;;;;5.57;4.60;;;;;13.60;99362.00;;;;16564560;28;20342;-47
2022/09/19 19:53:00;;;;;;;4.13;3.73;;;;;13.20;99376.00;;;;16567104;28;20884;-48
2022/09/19 20:01:06;;;;;;;7.00;4.80;;;;;13.20;99358.00;;;;16546923;28;20714;-48
2022/09/19 20:09:10;;;;;;;4.90;4.23;;;;;12.50;99351.00;;;;16574374;28;20865;-48
2022/09/19 20:17:14;;;;;;;6.03;4.60;;;;;12.30;99367.00;;;;16548083;28;20229;-47
2022/09/19 20:25:17;;;;;;;7.40;5.50;;;;;12.30;99361.00;;;;16546648;28;20320;-47
2022/09/19 20:33:21;;;;;;;5.97;5.37;;;;;12.80;99365.00;;;;16565350;28;20224;-47
2022/09/19 20:41:24;;;;;;;7.20;4.83;;;;;12.50;99362.00;;;;16562330;28;20661;-47
2022/09/19 20:49:28;;;;;;;4.87;4.47;;;;;12.40;99367.00;;;;16551815;28;20225;-48
2022/09/19 20:57:32;;;;;;;9.53;4.90;;;;;12.50;99369.00;;;;16556595;28;20553;-47
2022/09/19 21:05:37;;;;;;;5.90;4.90;;;;;12.30;99370.00;;;;16566891;28;20699;-48
2022/09/19 21:13:41;;;;;;;5.60;5.00;;;;;12.00;99360.00;;;;16567294;28;20207;-47
2022/09/19 21:21:45;;;;;;;6.70;4.23;;;;;11.80;99366.00;;;;16586148;28;20715;-47
2022/09/19 21:29:48;;;;;;;8.27;5.13;;;;;12.10;99375.00;;;;16578627;28;20309;-47
2022/09/19 21:37:52;;;;;;;5.97;5.40;;;;;12.20;99388.00;;;;16594156;28;20269;-47
2022/09/19 21:46:01;;;;;;;6.93;4.83;;;;;12.40;99384.00;;;;16592230;28;20554;-47
2022/09/19 21:54:06;;;;;;;6.63;6.03;;;;;11.90;99392.00;;;;16585260;28;20303;-47
2022/09/19 22:02:09;;;;;;;5.40;4.50;;;;;11.50;99399.00;;;;16586781;28;20298;-47
2022/09/19 22:10:13;;;;;;;6.40;5.80;;;;;11.70;99395.00;;;;16594374;28;20293;-47
2022/09/19 22:18:15;;;;;;;5.40;4.97;;;;;11.50;99405.00;;;;16588549;28;20234;-47
2022/09/19 22:26:21;;;;;;;8.67;4.60;;;;;11.50;99397.00;;;;16588183;28;20204;-48
2022/09/19 22:34:23;;;;;;;5.43;4.73;;;;;11.80;99395.00;;;;16573507;23;20314;-47
2022/09/19 22:42:27;;;;;;;6.63;4.60;;;;;11.70;99397.00;;;;16511786;28;20224;-48
2022/09/19 22:50:29;;;;;;;5.70;4.50;;;;;11.50;99402.00;;;;16520739;28;20210;-48
2022/09/19 22:58:36;;;;;;;5.73;5.20;;;;;11.30;99390.00;;;;16513997;28;20302;-47
2022/09/19 23:06:41;;;;;;;5.93;4.63;;;;;11.40;99399.00;;;;16524758;28;20220;-48
2022/09/19 23:14:44;;;;;;;5.97;4.10;;;;;11.30;99402.00;;;;16516124;28;20244;-48
2022/09/19 23:22:47;;;;;;;7.10;4.87;;;;;11.00;99400.00;;;;16515971;28;20224;-48
2022/09/19 23:30:51;;;;;;;5.23;4.20;;;;;11.00;99390.00;;;;16515405;28;20210;-48
2022/09/19 23:38:54;;;;;;;5.37;4.87;;;;;11.10;99401.00;;;;16521564;28;20228;-48
2022/09/19 23:46:58;;;;;;;5.90;4.20;;;;;11.50;99394.00;;;;16513334;28;20224;-48
2022/09/19 23:55:00;;;;;;;4.47;4.17;;;;;11.20;99397.00;;;;16509417;28;20221;-48
